Aviation Digital Data Service (ADDS)

Output produced by TAFs form (0930 UTC 17 October 2017)
found at http://www.aviationweather.gov/adds/tafs/
 
KGSP 170853Z AUTO 02003KT 10SM CLR 08/04 A3028 RMK AO2 SLP249 T00830044 53002
KGSP 170538Z 1706/1806 02006KT P6SM SKC 
     FM171500 05009KT P6SM SKC 
     FM180000 03003KT P6SM SKC